createdAt,value
2018-11-07T00:00:57.308Z,1012.56
2018-11-07T00:01:57.361Z,1012.57
2018-11-07T00:02:57.550Z,1012.55
2018-11-07T00:03:57.343Z,1012.54
2018-11-07T00:04:57.299Z,1012.55
2018-11-07T00:05:57.307Z,1012.54
2018-11-07T00:06:57.296Z,1012.53
2018-11-07T00:07:57.585Z,1012.48
2018-11-07T00:08:57.394Z,1012.48
2018-11-07T00:09:57.315Z,1012.5
2018-11-07T00:10:57.319Z,1012.47
2018-11-07T00:11:57.291Z,1012.47
2018-11-07T00:12:57.286Z,1012.5
2018-11-07T00:13:58.198Z,1012.5
2018-11-07T00:14:57.497Z,1012.52
2018-11-07T00:15:57.431Z,1012.55
2018-11-07T00:16:57.358Z,1012.58
2018-11-07T00:17:57.492Z,1012.61
2018-11-07T00:18:57.309Z,1012.59
2018-11-07T00:19:57.385Z,1012.59
2018-11-07T00:20:57.551Z,1012.61
2018-11-07T00:21:57.558Z,1012.63
2018-11-07T00:22:57.657Z,1012.64
2018-11-07T00:23:58.241Z,1012.59
2018-11-07T00:24:57.401Z,1012.59
2018-11-07T00:25:57.281Z,1012.58
2018-11-07T00:26:57.354Z,1012.57
2018-11-07T00:27:57.282Z,1012.56
2018-11-07T00:28:57.347Z,1012.55
2018-11-07T00:29:57.447Z,1012.57
2018-11-07T00:30:57.305Z,1012.53
2018-11-07T00:31:57.410Z,1012.53
2018-11-07T00:32:57.291Z,1012.54
2018-11-07T00:33:57.270Z,1012.53
2018-11-07T00:34:57.426Z,1012.53
2018-11-07T00:35:57.291Z,1012.54
2018-11-07T00:36:57.442Z,1012.51
2018-11-07T00:37:57.229Z,1012.48
2018-11-07T00:38:57.428Z,1012.49
2018-11-07T00:39:57.333Z,1012.52
2018-11-07T00:40:57.253Z,1012.54
2018-11-07T00:41:57.399Z,1012.54
2018-11-07T00:42:57.237Z,1012.58
2018-11-07T00:43:57.222Z,1012.58
2018-11-07T00:44:57.433Z,1012.58
2018-11-07T00:45:57.413Z,1012.61
2018-11-07T00:46:57.281Z,1012.59
2018-11-07T00:47:57.232Z,1012.57
2018-11-07T00:48:57.235Z,1012.62
2018-11-07T00:49:57.263Z,1012.58
2018-11-07T00:50:57.215Z,1012.62
2018-11-07T00:51:57.427Z,1012.62
2018-11-07T00:52:57.302Z,1012.64
2018-11-07T00:53:57.218Z,1012.63
2018-11-07T00:54:57.229Z,1012.63
2018-11-07T00:55:57.423Z,1012.64
2018-11-07T00:56:57.314Z,1012.65
2018-11-07T00:57:57.350Z,1012.66
2018-11-07T00:58:57.272Z,1012.67
2018-11-07T00:59:57.197Z,1012.67
2018-11-07T01:00:57.211Z,1012.72
2018-11-07T01:01:57.228Z,1012.71
2018-11-07T01:02:57.622Z,1012.72
2018-11-07T01:03:57.240Z,1012.75
2018-11-07T01:04:57.253Z,1012.75
2018-11-07T01:05:57.197Z,1012.76
2018-11-07T01:06:57.174Z,1012.74
2018-11-07T01:07:57.174Z,1012.74
2018-11-07T01:08:57.251Z,1012.8
2018-11-07T01:09:57.190Z,1012.79
2018-11-07T01:10:57.572Z,1012.79
2018-11-07T01:11:57.182Z,1012.8
2018-11-07T01:12:57.332Z,1012.8
2018-11-07T01:13:57.393Z,1012.86
2018-11-07T01:14:57.289Z,1012.84
2018-11-07T01:15:57.251Z,1012.86
2018-11-07T01:16:57.182Z,1012.85
2018-11-07T01:17:57.163Z,1012.84
2018-11-07T01:18:57.566Z,1012.86
2018-11-07T01:19:57.172Z,1012.81
2018-11-07T01:20:57.180Z,1012.84
2018-11-07T01:21:57.203Z,1012.85
2018-11-07T01:22:57.156Z,1012.87
2018-11-07T01:23:57.214Z,1012.81
2018-11-07T01:24:57.173Z,1012.86
2018-11-07T01:25:57.351Z,1012.89
2018-11-07T01:26:57.167Z,1012.86
2018-11-07T01:27:57.150Z,1012.84
2018-11-07T01:28:57.265Z,1012.88
2018-11-07T01:29:57.186Z,1012.8
2018-11-07T01:30:57.254Z,1012.81
2018-11-07T01:31:57.164Z,1012.8
2018-11-07T01:32:57.150Z,1012.81
2018-11-07T01:33:57.123Z,1012.8
2018-11-07T01:34:57.151Z,1012.77
2018-11-07T01:35:57.180Z,1012.74
2018-11-07T01:36:57.163Z,1012.79
2018-11-07T01:37:57.144Z,1012.76
2018-11-07T01:38:57.162Z,1012.8
2018-11-07T01:39:57.375Z,1012.74
2018-11-07T01:40:57.299Z,1012.74
2018-11-07T01:41:57.275Z,1012.74
2018-11-07T01:42:57.124Z,1012.68
2018-11-07T01:43:57.431Z,1012.66
2018-11-07T01:44:57.502Z,1012.62
2018-11-07T01:45:57.178Z,1012.57
2018-11-07T01:46:57.413Z,1012.61
2018-11-07T01:47:57.235Z,1012.58
2018-11-07T01:48:57.137Z,1012.59
2018-11-07T01:49:57.531Z,1012.55
2018-11-07T01:50:57.174Z,1012.57
2018-11-07T01:51:57.266Z,1012.58
2018-11-07T01:52:57.513Z,1012.55
2018-11-07T01:53:57.169Z,1012.56
2018-11-07T01:54:57.109Z,1012.5
2018-11-07T01:55:57.197Z,1012.46
2018-11-07T01:56:57.145Z,1012.44
2018-11-07T01:57:57.146Z,1012.45
2018-11-07T01:58:57.303Z,1012.41
2018-11-07T01:59:57.249Z,1012.38
2018-11-07T02:00:57.110Z,1012.44
2018-11-07T02:01:57.223Z,1012.4
2018-11-07T02:02:57.171Z,1012.35
2018-11-07T02:03:57.271Z,1012.37
2018-11-07T02:04:57.095Z,1012.36
2018-11-07T02:05:57.230Z,1012.37
2018-11-07T02:06:57.139Z,1012.39
2018-11-07T02:07:57.112Z,1012.35
2018-11-07T02:08:57.361Z,1012.37
2018-11-07T02:09:57.373Z,1012.33
2018-11-07T02:10:57.082Z,1012.34
2018-11-07T02:11:57.187Z,1012.34
2018-11-07T02:12:57.078Z,1012.39
2018-11-07T02:13:57.217Z,1012.38
2018-11-07T02:14:57.163Z,1012.39
2018-11-07T02:15:57.426Z,1012.39
2018-11-07T02:16:57.257Z,1012.41
2018-11-07T02:17:57.193Z,1012.41
2018-11-07T02:18:57.271Z,1012.45
2018-11-07T02:19:57.085Z,1012.41
2018-11-07T02:20:57.089Z,1012.38
2018-11-07T02:21:57.068Z,1012.35
2018-11-07T02:22:57.354Z,1012.36
2018-11-07T02:23:57.505Z,1012.36
2018-11-07T02:24:57.270Z,1012.32
2018-11-07T02:25:57.070Z,1012.29
2018-11-07T02:26:57.092Z,1012.3
2018-11-07T02:27:57.175Z,1012.25
2018-11-07T02:28:57.058Z,1012.27
2018-11-07T02:29:57.120Z,1012.29
2018-11-07T02:30:57.211Z,1012.23
2018-11-07T02:31:57.062Z,1012.29
2018-11-07T02:32:57.096Z,1012.25
2018-11-07T02:33:57.119Z,1012.24
2018-11-07T02:34:57.199Z,1012.23
2018-11-07T02:35:57.060Z,1012.22
2018-11-07T02:36:57.329Z,1012.22
2018-11-07T02:37:57.149Z,1012.21
2018-11-07T02:38:57.123Z,1012.26
2018-11-07T02:39:57.202Z,1012.26
2018-11-07T02:40:57.013Z,1012.26
2018-11-07T02:41:57.704Z,1012.3
2018-11-07T02:42:57.143Z,1012.32
2018-11-07T02:43:57.061Z,1012.32
2018-11-07T02:44:57.071Z,1012.36
2018-11-07T02:45:57.146Z,1012.36
2018-11-07T02:46:57.189Z,1012.42
2018-11-07T02:47:57.065Z,1012.38
2018-11-07T02:48:57.505Z,1012.44
2018-11-07T02:49:57.029Z,1012.44
2018-11-07T02:50:57.089Z,1012.46
2018-11-07T02:51:57.038Z,1012.51
2018-11-07T02:52:57.039Z,1012.53
2018-11-07T02:53:57.034Z,1012.55
2018-11-07T02:54:57.143Z,1012.57
2018-11-07T02:55:57.067Z,1012.53
2018-11-07T02:56:57.065Z,1012.55
2018-11-07T02:57:57.071Z,1012.55
2018-11-07T02:58:57.396Z,1012.5
2018-11-07T02:59:57.048Z,1012.54
2018-11-07T03:00:57.280Z,1012.48
2018-11-07T03:01:57.086Z,1012.5
2018-11-07T03:02:57.041Z,1012.5
2018-11-07T03:03:57.744Z,1012.51
2018-11-07T03:04:57.035Z,1012.51
2018-11-07T03:05:57.014Z,1012.5
2018-11-07T03:06:57.482Z,1012.47
2018-11-07T03:07:57.025Z,1012.46
2018-11-07T03:08:57.159Z,1012.47
2018-11-07T03:09:57.089Z,1012.45
2018-11-07T03:10:57.124Z,1012.47
2018-11-07T03:11:57.063Z,1012.5
2018-11-07T03:12:57.399Z,1012.48
2018-11-07T03:13:56.994Z,1012.51
2018-11-07T03:14:57.009Z,1012.48
2018-11-07T03:15:57.449Z,1012.53
2018-11-07T03:16:57.214Z,1012.51
2018-11-07T03:17:57.095Z,1012.5
2018-11-07T03:18:57.077Z,1012.5
2018-11-07T03:19:56.997Z,1012.49
2018-11-07T03:20:56.993Z,1012.48
2018-11-07T03:21:57.041Z,1012.52
2018-11-07T03:22:56.997Z,1012.55
2018-11-07T03:23:57.126Z,1012.59
2018-11-07T03:24:57.111Z,1012.58
2018-11-07T03:25:57.391Z,1012.61
2018-11-07T03:26:57.179Z,1012.65
2018-11-07T03:27:57.228Z,1012.67
2018-11-07T03:28:57.200Z,1012.64
2018-11-07T03:29:57.415Z,1012.59
2018-11-07T03:30:56.994Z,1012.59
2018-11-07T03:31:57.214Z,1012.62
2018-11-07T03:32:57.110Z,1012.56
2018-11-07T03:33:57.186Z,1012.54
2018-11-07T03:34:57.464Z,1012.51
2018-11-07T03:35:57.111Z,1012.43
2018-11-07T03:36:57.147Z,1012.46
2018-11-07T03:37:57.154Z,1012.43
2018-11-07T03:38:57.030Z,1012.4
2018-11-07T03:39:57.370Z,1012.46
2018-11-07T03:40:57.212Z,1012.42
2018-11-07T03:41:57.040Z,1012.49
2018-11-07T03:42:57.002Z,1012.51
2018-11-07T03:43:56.998Z,1012.5
2018-11-07T03:44:57.038Z,1012.46
2018-11-07T03:45:57.000Z,1012.43
2018-11-07T03:46:57.017Z,1012.4
2018-11-07T03:47:57.007Z,1012.38
2018-11-07T03:48:56.992Z,1012.36
2018-11-07T03:49:57.007Z,1012.4
2018-11-07T03:50:57.089Z,1012.37
2018-11-07T03:51:57.358Z,1012.4
2018-11-07T03:52:57.163Z,1012.4
2018-11-07T03:53:57.023Z,1012.39
2018-11-07T03:54:57.377Z,1012.39
2018-11-07T03:55:57.278Z,1012.36
2018-11-07T03:56:56.997Z,1012.29
2018-11-07T03:57:57.033Z,1012.34
2018-11-07T03:58:57.044Z,1012.29
2018-11-07T03:59:57.014Z,1012.31
2018-11-07T04:00:57.103Z,1012.32
2018-11-07T04:01:56.935Z,1012.32
2018-11-07T04:02:57.135Z,1012.28
2018-11-07T04:03:57.227Z,1012.29
2018-11-07T04:04:57.136Z,1012.31
2018-11-07T04:05:57.116Z,1012.26
2018-11-07T04:06:57.047Z,1012.26
2018-11-07T04:07:57.042Z,1012.28
2018-11-07T04:08:57.106Z,1012.27
2018-11-07T04:09:57.015Z,1012.26
2018-11-07T04:10:56.930Z,1012.26
2018-11-07T04:11:57.067Z,1012.23
2018-11-07T04:12:57.339Z,1012.28
2018-11-07T04:13:56.917Z,1012.3
2018-11-07T04:14:56.953Z,1012.28
2018-11-07T04:15:57.003Z,1012.28
2018-11-07T04:16:56.936Z,1012.24
2018-11-07T04:17:57.032Z,1012.31
2018-11-07T04:18:57.034Z,1012.29
2018-11-07T04:19:56.968Z,1012.37
2018-11-07T04:20:56.961Z,1012.34
2018-11-07T04:21:56.919Z,1012.33
2018-11-07T04:22:56.919Z,1012.3
2018-11-07T04:23:56.939Z,1012.39
2018-11-07T04:24:56.916Z,1012.39
2018-11-07T04:25:56.900Z,1012.37
2018-11-07T04:26:57.184Z,1012.38
2018-11-07T04:27:56.899Z,1012.34
2018-11-07T04:28:57.100Z,1012.35
2018-11-07T04:29:56.936Z,1012.37
2018-11-07T04:30:56.943Z,1012.31
2018-11-07T04:31:57.022Z,1012.28
2018-11-07T04:32:56.891Z,1012.31
2018-11-07T04:33:56.956Z,1012.27
2018-11-07T04:34:56.937Z,1012.29
2018-11-07T04:35:56.905Z,1012.24
2018-11-07T04:36:56.964Z,1012.26
2018-11-07T04:37:57.061Z,1012.2
2018-11-07T04:38:57.073Z,1012.24
2018-11-07T04:39:57.402Z,1012.26
2018-11-07T04:40:56.980Z,1012.22
2018-11-07T04:41:57.038Z,1012.27
2018-11-07T04:42:56.987Z,1012.25
2018-11-07T04:43:57.022Z,1012.3
2018-11-07T04:44:57.577Z,1012.31
2018-11-07T04:45:56.952Z,1012.28
2018-11-07T04:46:57.036Z,1012.31
2018-11-07T04:47:56.956Z,1012.39
2018-11-07T04:48:56.990Z,1012.36
2018-11-07T04:49:56.902Z,1012.37
2018-11-07T04:50:56.976Z,1012.39
2018-11-07T04:51:57.157Z,1012.39
2018-11-07T04:52:56.957Z,1012.37
2018-11-07T04:53:57.045Z,1012.44
2018-11-07T04:54:56.948Z,1012.47
2018-11-07T04:55:56.963Z,1012.51
2018-11-07T04:56:56.944Z,1012.52
2018-11-07T04:57:57.092Z,1012.55
2018-11-07T04:58:57.020Z,1012.47
2018-11-07T04:59:56.946Z,1012.43
2018-11-07T05:00:57.112Z,1012.47
2018-11-07T05:01:57.216Z,1012.44
2018-11-07T05:02:56.867Z,1012.5
2018-11-07T05:03:56.895Z,1012.51
2018-11-07T05:04:56.837Z,1012.48
2018-11-07T05:05:57.043Z,1012.48
2018-11-07T05:06:57.013Z,1012.39
2018-11-07T05:07:57.479Z,1012.4
2018-11-07T05:08:56.955Z,1012.38
2018-11-07T05:09:56.962Z,1012.39
2018-11-07T05:10:56.980Z,1012.37
2018-11-07T05:11:56.883Z,1012.36
2018-11-07T05:12:57.002Z,1012.38
2018-11-07T05:13:57.008Z,1012.38
2018-11-07T05:14:56.912Z,1012.33
2018-11-07T05:15:56.820Z,1012.35
2018-11-07T05:16:56.921Z,1012.33
2018-11-07T05:17:56.940Z,1012.33
2018-11-07T05:18:57.134Z,1012.36
2018-11-07T05:19:57.041Z,1012.36
2018-11-07T05:20:56.860Z,1012.35
2018-11-07T05:21:57.052Z,1012.35
2018-11-07T05:22:56.978Z,1012.36
2018-11-07T05:23:56.932Z,1012.36
2018-11-07T05:24:56.923Z,1012.32
2018-11-07T05:25:56.852Z,1012.35
2018-11-07T05:26:56.930Z,1012.35
2018-11-07T05:27:56.795Z,1012.39
2018-11-07T05:28:57.033Z,1012.41
2018-11-07T05:29:56.897Z,1012.44
2018-11-07T05:30:57.063Z,1012.44
2018-11-07T05:31:57.018Z,1012.4
2018-11-07T05:32:56.905Z,1012.4
2018-11-07T05:33:57.173Z,1012.44
2018-11-07T05:34:56.938Z,1012.48
2018-11-07T05:35:56.892Z,1012.48
2018-11-07T05:36:56.968Z,1012.5
2018-11-07T05:37:57.063Z,1012.54
2018-11-07T05:38:57.376Z,1012.54
2018-11-07T05:39:57.073Z,1012.54
2018-11-07T05:40:57.285Z,1012.55
2018-11-07T05:41:57.116Z,1012.49
2018-11-07T05:42:57.244Z,1012.49
2018-11-07T05:43:57.102Z,1012.54
2018-11-07T05:44:57.150Z,1012.49
2018-11-07T05:45:56.912Z,1012.54
2018-11-07T05:46:56.789Z,1012.57
2018-11-07T05:47:56.830Z,1012.57
2018-11-07T05:48:57.024Z,1012.64
2018-11-07T05:49:56.788Z,1012.66
2018-11-07T05:50:56.957Z,1012.67
2018-11-07T05:51:56.793Z,1012.67
2018-11-07T05:52:56.823Z,1012.66
2018-11-07T05:53:57.095Z,1012.64
2018-11-07T05:54:56.777Z,1012.65
2018-11-07T05:55:56.841Z,1012.65
2018-11-07T05:56:56.796Z,1012.62
2018-11-07T05:57:56.791Z,1012.68
2018-11-07T05:58:56.750Z,1012.64
2018-11-07T05:59:56.783Z,1012.67
2018-11-07T06:00:56.758Z,1012.66
2018-11-07T06:01:56.764Z,1012.7
2018-11-07T06:02:56.765Z,1012.67
2018-11-07T06:03:56.780Z,1012.7
2018-11-07T06:04:57.045Z,1012.64
2018-11-07T06:05:56.796Z,1012.62
2018-11-07T06:06:56.954Z,1012.65
2018-11-07T06:07:56.767Z,1012.69
2018-11-07T06:08:56.973Z,1012.7
2018-11-07T06:09:57.085Z,1012.74
2018-11-07T06:10:56.969Z,1012.71
2018-11-07T06:11:57.099Z,1012.77
2018-11-07T06:12:56.813Z,1012.78
2018-11-07T06:13:57.628Z,1012.77
2018-11-07T06:14:56.888Z,1012.77
2018-11-07T06:15:56.986Z,1012.81
2018-11-07T06:16:56.885Z,1012.84
2018-11-07T06:17:57.104Z,1012.81
2018-11-07T06:18:57.086Z,1012.83
2018-11-07T06:19:57.252Z,1012.8
2018-11-07T06:20:57.140Z,1012.82
2018-11-07T06:21:56.739Z,1012.82
2018-11-07T06:22:58.640Z,1012.83
2018-11-07T06:23:57.102Z,1012.88
2018-11-07T06:24:57.335Z,1012.83
2018-11-07T06:25:57.275Z,1012.85
2018-11-07T06:26:56.905Z,1012.86
2018-11-07T06:27:57.103Z,1012.87
2018-11-07T06:28:56.936Z,1012.83
2018-11-07T06:29:56.754Z,1012.8
2018-11-07T06:30:56.779Z,1012.83
2018-11-07T06:31:56.729Z,1012.79
2018-11-07T06:32:57.145Z,1012.82
2018-11-07T06:33:56.869Z,1012.82
2018-11-07T06:34:56.746Z,1012.86
2018-11-07T06:35:56.733Z,1012.85
2018-11-07T06:36:57.104Z,1012.86
2018-11-07T06:37:56.837Z,1012.91
2018-11-07T06:38:57.130Z,1012.91
2018-11-07T06:39:56.909Z,1012.98
2018-11-07T06:40:57.090Z,1012.93
2018-11-07T06:41:56.992Z,1012.89
2018-11-07T06:42:56.731Z,1012.89
2018-11-07T06:43:56.789Z,1012.9
2018-11-07T06:44:56.733Z,1012.87
2018-11-07T06:45:57.104Z,1012.84
2018-11-07T06:46:57.033Z,1012.93
2018-11-07T06:47:56.787Z,1012.91
2018-11-07T06:48:56.848Z,1012.96
2018-11-07T06:49:56.692Z,1012.96
2018-11-07T06:50:56.728Z,1012.94
2018-11-07T06:51:56.766Z,1012.94
2018-11-07T06:52:56.749Z,1013
2018-11-07T06:53:56.721Z,1013.01
2018-11-07T06:54:56.741Z,1013.06
2018-11-07T06:55:56.825Z,1013.05
2018-11-07T06:56:56.740Z,1013.01
2018-11-07T06:57:56.837Z,1012.98
2018-11-07T06:58:56.897Z,1012.99
2018-11-07T06:59:56.672Z,1012.99
2018-11-07T07:00:56.720Z,1012.99
2018-11-07T07:01:56.798Z,1013.02
2018-11-07T07:02:56.717Z,1012.98
2018-11-07T07:03:56.731Z,1013.04
2018-11-07T07:04:56.947Z,1013.05
2018-11-07T07:05:56.797Z,1013.03
2018-11-07T07:06:57.068Z,1013.03
2018-11-07T07:07:57.068Z,1013.03
2018-11-07T07:08:56.798Z,1013.04
2018-11-07T07:09:56.679Z,1013.03
2018-11-07T07:10:56.725Z,1013
2018-11-07T07:11:56.727Z,1013.03
2018-11-07T07:12:56.667Z,1013.03
2018-11-07T07:13:57.057Z,1013.05
2018-11-07T07:14:56.919Z,1013.05
2018-11-07T07:15:56.719Z,1013.06
2018-11-07T07:16:56.935Z,1013.04
2018-11-07T07:17:56.842Z,1013.08
2018-11-07T07:18:56.682Z,1013.04
2018-11-07T07:19:56.667Z,1013.08
2018-11-07T07:20:56.684Z,1013.02
2018-11-07T07:21:56.661Z,1013.05
2018-11-07T07:22:56.721Z,1013.07
2018-11-07T07:23:56.653Z,1013.07
2018-11-07T07:24:56.664Z,1013.07
2018-11-07T07:25:56.774Z,1013.09
2018-11-07T07:26:56.630Z,1013.06
2018-11-07T07:27:56.707Z,1013.04
2018-11-07T07:28:56.674Z,1013.06
2018-11-07T07:29:56.896Z,1013.04
2018-11-07T07:30:56.662Z,1013.05
2018-11-07T07:31:56.678Z,1013.07
2018-11-07T07:32:56.811Z,1013.03
2018-11-07T07:33:56.688Z,1013.01
2018-11-07T07:34:56.638Z,1012.98
2018-11-07T07:35:56.624Z,1012.98
2018-11-07T07:36:56.659Z,1013.03
2018-11-07T07:37:57.508Z,1013.03
2018-11-07T07:38:56.645Z,1013.03
2018-11-07T07:39:56.663Z,1013.06
2018-11-07T07:40:57.106Z,1013.06
2018-11-07T07:41:56.766Z,1013.02
2018-11-07T07:42:56.731Z,1013.02
2018-11-07T07:43:56.678Z,1013
2018-11-07T07:44:56.916Z,1012.98
2018-11-07T07:45:56.649Z,1012.96
2018-11-07T07:46:56.626Z,1013.03
2018-11-07T07:47:56.706Z,1012.98
2018-11-07T07:48:56.655Z,1012.94
2018-11-07T07:49:56.646Z,1012.95
2018-11-07T07:50:56.687Z,1012.98
2018-11-07T07:51:56.663Z,1012.96
2018-11-07T07:52:56.973Z,1012.96
2018-11-07T07:53:56.710Z,1012.96
2018-11-07T07:54:56.888Z,1012.98
2018-11-07T07:55:56.622Z,1013
2018-11-07T07:56:56.676Z,1013.04
2018-11-07T07:57:57.043Z,1013.05
2018-11-07T07:58:56.734Z,1013.06
2018-11-07T07:59:56.703Z,1013.08
2018-11-07T08:00:56.664Z,1013.03
2018-11-07T08:01:56.628Z,1013.09
2018-11-07T08:02:56.643Z,1013.02
2018-11-07T08:03:56.959Z,1013.04
2018-11-07T08:04:56.715Z,1013.03
2018-11-07T08:05:56.635Z,1013.06
2018-11-07T08:06:56.799Z,1013.05
2018-11-07T08:07:56.758Z,1013.06
2018-11-07T08:08:56.631Z,1013.04
2018-11-07T08:09:56.667Z,1013.09
2018-11-07T08:10:56.658Z,1013.1
2018-11-07T08:11:56.728Z,1013.06
2018-11-07T08:12:56.665Z,1013.06
2018-11-07T08:13:57.065Z,1013.05
2018-11-07T08:14:56.806Z,1013.06
2018-11-07T08:15:56.582Z,1013.03
2018-11-07T08:16:56.675Z,1013.01
2018-11-07T08:17:56.990Z,1012.98
2018-11-07T08:18:56.691Z,1012.99
2018-11-07T08:19:56.671Z,1012.98
2018-11-07T08:20:56.590Z,1012.94
2018-11-07T08:21:56.742Z,1012.95
2018-11-07T08:22:56.673Z,1013
2018-11-07T08:23:56.616Z,1013.01
2018-11-07T08:24:56.773Z,1013.03
2018-11-07T08:25:56.650Z,1013.05
2018-11-07T08:26:56.708Z,1012.99
2018-11-07T08:27:56.665Z,1012.97
2018-11-07T08:28:56.803Z,1012.99
2018-11-07T08:29:56.729Z,1013
2018-11-07T08:30:57.118Z,1012.97
2018-11-07T08:31:56.772Z,1012.95
2018-11-07T08:32:56.590Z,1012.95
2018-11-07T08:33:56.574Z,1012.91
2018-11-07T08:34:56.754Z,1012.89
2018-11-07T08:35:56.590Z,1012.91
2018-11-07T08:36:56.552Z,1012.81
2018-11-07T08:37:56.731Z,1012.85
2018-11-07T08:38:56.618Z,1012.85
2018-11-07T08:39:56.605Z,1012.8
2018-11-07T08:40:56.625Z,1012.77
2018-11-07T08:41:56.568Z,1012.78
2018-11-07T08:42:56.679Z,1012.78
2018-11-07T08:43:56.681Z,1012.79
2018-11-07T08:44:56.623Z,1012.77
2018-11-07T08:45:56.499Z,1012.76
2018-11-07T08:46:56.702Z,1012.8
2018-11-07T08:47:56.574Z,1012.75
2018-11-07T08:48:56.757Z,1012.72
2018-11-07T08:49:56.610Z,1012.73
2018-11-07T08:50:56.953Z,1012.75
2018-11-07T08:51:56.532Z,1012.76
2018-11-07T08:52:56.546Z,1012.78
2018-11-07T08:53:56.613Z,1012.78
2018-11-07T08:54:56.598Z,1012.75
2018-11-07T08:55:56.566Z,1012.76
2018-11-07T08:56:56.628Z,1012.77
2018-11-07T08:57:56.557Z,1012.75
2018-11-07T08:58:56.591Z,1012.78
2018-11-07T08:59:56.648Z,1012.8
2018-11-07T09:00:57.024Z,1012.82
2018-11-07T09:01:56.675Z,1012.82
2018-11-07T09:02:56.555Z,1012.87
2018-11-07T09:03:56.819Z,1012.87
2018-11-07T09:04:56.549Z,1012.89
2018-11-07T09:05:56.517Z,1012.91
2018-11-07T09:06:56.519Z,1012.88
2018-11-07T09:07:56.568Z,1012.86
2018-11-07T09:08:56.549Z,1012.89
2018-11-07T09:09:56.535Z,1012.89
2018-11-07T09:10:56.566Z,1012.89
2018-11-07T09:11:56.596Z,1012.88
2018-11-07T09:12:56.645Z,1012.92
2018-11-07T09:13:56.543Z,1012.9
2018-11-07T09:14:56.567Z,1012.92
2018-11-07T09:15:57.231Z,1012.88
2018-11-07T09:16:56.574Z,1012.92
2018-11-07T09:17:56.524Z,1012.91
2018-11-07T09:18:56.537Z,1012.91
2018-11-07T09:19:56.723Z,1012.89
2018-11-07T09:20:56.583Z,1012.93
2018-11-07T09:21:56.530Z,1012.9
2018-11-07T09:22:56.773Z,1012.88
2018-11-07T09:23:56.614Z,1012.87
2018-11-07T09:24:56.616Z,1012.86
2018-11-07T09:25:56.784Z,1012.88
2018-11-07T09:26:56.797Z,1012.89
2018-11-07T09:27:56.516Z,1012.88
2018-11-07T09:28:56.673Z,1012.86
2018-11-07T09:29:56.619Z,1012.86
2018-11-07T09:30:56.685Z,1012.86
2018-11-07T09:31:56.597Z,1012.87
2018-11-07T09:32:56.618Z,1012.89
2018-11-07T09:33:56.563Z,1012.92
2018-11-07T09:34:56.774Z,1012.9
2018-11-07T09:35:56.474Z,1012.88
2018-11-07T09:36:56.467Z,1012.91
2018-11-07T09:37:56.870Z,1012.81
2018-11-07T09:38:56.548Z,1012.86
2018-11-07T09:39:56.818Z,1012.87
2018-11-07T09:40:56.467Z,1012.85
2018-11-07T09:41:56.572Z,1012.86
2018-11-07T09:42:56.534Z,1012.87
2018-11-07T09:43:56.597Z,1012.85
2018-11-07T09:44:56.742Z,1012.85
2018-11-07T09:45:56.711Z,1012.86
2018-11-07T09:46:56.716Z,1012.87
2018-11-07T09:47:56.566Z,1012.85
2018-11-07T09:48:56.825Z,1012.82
2018-11-07T09:49:56.895Z,1012.85
2018-11-07T09:50:56.845Z,1012.85
2018-11-07T09:51:56.474Z,1012.84
2018-11-07T09:52:56.500Z,1012.81
2018-11-07T09:53:56.763Z,1012.85
2018-11-07T09:54:56.809Z,1012.83
2018-11-07T09:55:56.467Z,1012.81
2018-11-07T09:56:56.433Z,1012.78
2018-11-07T09:57:56.776Z,1012.79
2018-11-07T09:58:56.479Z,1012.79
2018-11-07T09:59:56.510Z,1012.79
2018-11-07T10:00:56.828Z,1012.75
2018-11-07T10:01:56.631Z,1012.74
2018-11-07T10:02:56.659Z,1012.76
2018-11-07T10:03:56.439Z,1012.78
2018-11-07T10:04:56.598Z,1012.77
2018-11-07T10:05:56.644Z,1012.77
2018-11-07T10:06:56.760Z,1012.75
2018-11-07T10:07:56.442Z,1012.76
2018-11-07T10:08:56.517Z,1012.79
2018-11-07T10:09:56.443Z,1012.72
2018-11-07T10:10:56.477Z,1012.76
2018-11-07T10:11:56.457Z,1012.71
2018-11-07T10:12:56.906Z,1012.75
2018-11-07T10:13:56.572Z,1012.75
2018-11-07T10:14:56.529Z,1012.76
2018-11-07T10:15:56.447Z,1012.76
2018-11-07T10:16:56.657Z,1012.74
2018-11-07T10:17:56.430Z,1012.75
2018-11-07T10:18:56.758Z,1012.74
2018-11-07T10:19:56.442Z,1012.67
2018-11-07T10:20:56.430Z,1012.63
2018-11-07T10:21:56.557Z,1012.68
2018-11-07T10:22:56.416Z,1012.64
2018-11-07T10:23:56.406Z,1012.66
2018-11-07T10:24:56.445Z,1012.67
2018-11-07T10:25:56.391Z,1012.68
2018-11-07T10:26:57.001Z,1012.66
2018-11-07T10:27:57.621Z,1012.6
2018-11-07T10:28:57.179Z,1012.62
2018-11-07T10:29:57.689Z,1012.61
2018-11-07T10:30:56.501Z,1012.64
2018-11-07T10:31:56.436Z,1012.65
2018-11-07T10:32:56.428Z,1012.65
2018-11-07T10:33:56.524Z,1012.61
2018-11-07T10:34:56.411Z,1012.61
2018-11-07T10:35:56.396Z,1012.57
2018-11-07T10:36:56.381Z,1012.57
2018-11-07T10:37:56.636Z,1012.57
2018-11-07T10:38:56.639Z,1012.55
2018-11-07T10:39:56.675Z,1012.57
2018-11-07T10:40:56.391Z,1012.55
2018-11-07T10:41:56.458Z,1012.53
2018-11-07T10:42:56.505Z,1012.52
2018-11-07T10:43:56.588Z,1012.55
2018-11-07T10:44:56.406Z,1012.53
2018-11-07T10:45:56.607Z,1012.52
2018-11-07T10:46:56.462Z,1012.57
2018-11-07T10:47:56.749Z,1012.52
2018-11-07T10:48:56.567Z,1012.53
2018-11-07T10:49:56.601Z,1012.49
2018-11-07T10:50:56.437Z,1012.5
2018-11-07T10:51:56.776Z,1012.49
2018-11-07T10:52:56.555Z,1012.46
2018-11-07T10:53:56.419Z,1012.48
2018-11-07T10:54:56.535Z,1012.44
2018-11-07T10:55:56.421Z,1012.44
2018-11-07T10:56:56.346Z,1012.47
2018-11-07T10:57:56.384Z,1012.43
2018-11-07T10:58:56.715Z,1012.4
2018-11-07T10:59:56.490Z,1012.44
2018-11-07T11:00:56.529Z,1012.42
2018-11-07T11:01:56.386Z,1012.4
2018-11-07T11:02:56.368Z,1012.4
2018-11-07T11:03:56.407Z,1012.39
2018-11-07T11:04:56.506Z,1012.36
2018-11-07T11:05:56.444Z,1012.36
2018-11-07T11:06:56.942Z,1012.36
2018-11-07T11:07:56.512Z,1012.34
2018-11-07T11:08:56.460Z,1012.31
2018-11-07T11:09:56.579Z,1012.32
2018-11-07T11:10:57.047Z,1012.27
2018-11-07T11:11:56.389Z,1012.28
2018-11-07T11:12:56.458Z,1012.27
2018-11-07T11:13:56.481Z,1012.28
2018-11-07T11:14:56.374Z,1012.3
2018-11-07T11:15:56.516Z,1012.27
2018-11-07T11:16:56.606Z,1012.29
2018-11-07T11:17:56.423Z,1012.24
2018-11-07T11:18:56.493Z,1012.25
2018-11-07T11:19:56.353Z,1012.23
2018-11-07T11:20:56.763Z,1012.23
2018-11-07T11:21:56.435Z,1012.16
2018-11-07T11:22:56.577Z,1012.18
2018-11-07T11:23:56.338Z,1012.17
2018-11-07T11:24:56.474Z,1012.16
2018-11-07T11:25:58.801Z,1012.15
2018-11-07T11:26:56.547Z,1012.2
2018-11-07T11:27:56.339Z,1012.16
2018-11-07T11:28:56.555Z,1012.19
2018-11-07T11:29:57.178Z,1012.15
2018-11-07T11:30:56.292Z,1012.09
2018-11-07T11:31:56.312Z,1012.1
2018-11-07T11:32:56.447Z,1012.1
2018-11-07T11:33:56.691Z,1012.08
2018-11-07T11:34:56.717Z,1012.08
2018-11-07T11:35:56.795Z,1012.12
2018-11-07T11:36:56.451Z,1012.11
2018-11-07T11:37:56.342Z,1012.12
2018-11-07T11:38:56.380Z,1012.1
2018-11-07T11:39:56.436Z,1012.14
2018-11-07T11:40:56.558Z,1012.12
2018-11-07T11:41:56.329Z,1012.17
2018-11-07T11:42:56.758Z,1012.15
2018-11-07T11:43:56.354Z,1012.15
2018-11-07T11:44:56.293Z,1012.16
2018-11-07T11:45:56.460Z,1012.17
2018-11-07T11:46:56.460Z,1012.2
2018-11-07T11:47:56.479Z,1012.19
2018-11-07T11:48:56.413Z,1012.21
2018-11-07T11:49:56.416Z,1012.18
2018-11-07T11:50:56.310Z,1012.2
2018-11-07T11:51:56.292Z,1012.19
2018-11-07T11:52:56.313Z,1012.2
2018-11-07T11:53:56.288Z,1012.23
2018-11-07T11:54:56.341Z,1012.19
2018-11-07T11:55:56.290Z,1012.21
2018-11-07T11:56:56.308Z,1012.13
2018-11-07T11:57:56.682Z,1012.17
2018-11-07T11:58:56.564Z,1012.11
2018-11-07T11:59:57.325Z,1012.15
2018-11-07T12:00:56.278Z,1012.13
2018-11-07T12:01:56.290Z,1012.13
2018-11-07T12:02:56.316Z,1012.14
2018-11-07T12:03:56.403Z,1012.1
2018-11-07T12:04:56.263Z,1012.13
2018-11-07T12:05:56.266Z,1012.07
2018-11-07T12:06:56.287Z,1012.09
2018-11-07T12:07:56.353Z,1012.08
2018-11-07T12:08:56.522Z,1012.07